Time;durP1;ratioP1;P1;durP2;ratioP2;P2;SDS_P1;SDS_P2;PMS_P1;PMS_P2;Temp;Humidity;BMP_temperature;BMP_pressure;BME280_temperature;BME280_humidity;BME280_pressure;Samples;Min_cycle;Max_cycle;Signal;HPM_P1;HPM_P2
2022/08/31 00:05:59;;;;;;;2.15;1.30;;;25.70;51.10;;;;;;5061252;28;20057;-65
2022/08/31 00:08:25;;;;;;;1.83;1.20;;;25.70;51.10;;;;;;5060827;28;20427;-64
2022/08/31 00:10:53;;;;;;;2.10;1.33;;;25.70;51.10;;;;;;5060447;28;20029;-65
2022/08/31 00:13:23;;;;;;;1.73;1.17;;;25.70;51.10;;;;;;5062451;28;20106;-66
2022/08/31 00:15:50;;;;;;;2.22;1.30;;;25.70;51.10;;;;;;5061183;28;20035;-65
2022/08/31 00:18:16;;;;;;;1.77;1.35;;;25.70;51.10;;;;;;5061329;28;20465;-65
2022/08/31 00:20:43;;;;;;;2.38;1.50;;;25.70;51.10;;;;;;5061671;28;20485;-64
2022/08/31 00:23:11;;;;;;;1.75;1.30;;;25.70;51.10;;;;;;5061244;28;20372;-65
2022/08/31 00:25:40;;;;;;;2.03;1.40;;;25.70;51.10;;;;;;5061935;28;20036;-65
2022/08/31 00:28:07;;;;;;;1.75;1.40;;;25.70;51.10;;;;;;5060771;28;20428;-65
2022/08/31 00:30:34;;;;;;;1.88;1.20;;;25.70;51.10;;;;;;5061113;28;20120;-66
2022/08/31 00:33:00;;;;;;;1.48;1.20;;;25.70;51.10;;;;;;5059258;28;20064;-65
2022/08/31 00:35:27;;;;;;;2.10;1.40;;;25.70;51.10;;;;;;5061255;28;20518;-65
2022/08/31 00:37:53;;;;;;;1.90;1.25;;;25.70;51.10;;;;;;5061924;28;20062;-64
2022/08/31 00:40:18;;;;;;;1.85;1.30;;;25.70;51.10;;;;;;5060828;28;20028;-65
2022/08/31 00:42:44;;;;;;;1.90;1.27;;;25.70;51.10;;;;;;5060280;28;20033;-65
2022/08/31 00:45:10;;;;;;;2.40;1.40;;;25.70;51.10;;;;;;5061527;28;20542;-65
2022/08/31 00:47:36;;;;;;;1.65;1.20;;;25.60;51.00;;;;;;5061722;28;20381;-65
2022/08/31 00:50:05;;;;;;;1.65;1.20;;;25.70;51.10;;;;;;5061048;28;20551;-64
2022/08/31 00:52:34;;;;;;;1.52;1.17;;;25.70;51.10;;;;;;5061108;28;20024;-66
2022/08/31 00:55:08;;;;;;;1.92;1.25;;;25.70;51.10;;;;;;5061401;28;20538;-65
2022/08/31 00:57:38;;;;;;;1.95;1.30;;;25.70;51.10;;;;;;5060827;28;20128;-66
2022/08/31 01:00:09;;;;;;;1.95;1.30;;;25.70;51.10;;;;;;5060504;28;20037;-64
2022/08/31 01:02:34;;;;;;;1.80;1.30;;;25.70;51.10;;;;;;5059855;28;20037;-65
2022/08/31 01:05:00;;;;;;;1.42;1.20;;;25.70;51.10;;;;;;5062116;28;20536;-64
2022/08/31 01:07:26;;;;;;;1.83;1.38;;;25.60;51.00;;;;;;5060827;28;20033;-65
2022/08/31 01:09:53;;;;;;;1.42;1.20;;;25.60;51.00;;;;;;5060180;28;20116;-64
2022/08/31 01:12:19;;;;;;;1.63;1.20;;;25.70;51.10;;;;;;5060939;28;20025;-64
2022/08/31 01:14:45;;;;;;;1.40;1.10;;;25.60;51.00;;;;;;5060492;28;20132;-65
2022/08/31 01:17:10;;;;;;;1.92;1.40;;;25.60;51.10;;;;;;5060556;28;20147;-66
2022/08/31 01:19:48;;;;;;;1.60;1.20;;;25.60;51.00;;;;;;5061112;28;20047;-64
2022/08/31 01:22:23;;;;;;;1.70;1.30;;;25.60;51.00;;;;;;5059424;28;20017;-65
2022/08/31 01:24:49;;;;;;;1.85;1.40;;;25.70;51.10;;;;;;5060557;28;20062;-66
2022/08/31 01:27:20;;;;;;;1.90;1.25;;;25.60;51.10;;;;;;5061332;28;20021;-64
2022/08/31 01:29:46;;;;;;;1.70;1.20;;;25.60;51.00;;;;;;5059739;28;20029;-65
2022/08/31 01:32:12;;;;;;;1.67;1.20;;;25.60;51.10;;;;;;5058895;28;20060;-64
2022/08/31 01:34:37;;;;;;;1.65;1.33;;;25.60;51.10;;;;;;5061435;28;20754;-64
2022/08/31 01:37:03;;;;;;;1.73;1.23;;;25.60;51.10;;;;;;5061139;28;20097;-65
2022/08/31 01:39:29;;;;;;;1.88;1.30;;;25.60;51.60;;;;;;5059288;28;20425;-65
2022/08/31 01:41:55;;;;;;;1.52;1.20;;;25.60;51.10;;;;;;5060454;28;20029;-65
2022/08/31 01:44:23;;;;;;;1.80;1.25;;;25.60;51.10;;;;;;5060986;28;20476;-65
2022/08/31 01:46:50;;;;;;;1.70;1.47;;;25.60;51.10;;;;;;5059487;28;20033;-66
2022/08/31 01:49:17;;;;;;;2.08;1.20;;;25.60;51.10;;;;;;5060266;28;20449;-65
2022/08/31 01:51:43;;;;;;;1.73;1.10;;;25.60;51.10;;;;;;5059920;28;20045;-64
2022/08/31 01:54:09;;;;;;;1.70;1.20;;;25.60;51.10;;;;;;5060946;28;20087;-65
2022/08/31 01:56:38;;;;;;;1.70;1.23;;;25.60;51.10;;;;;;5060527;28;20033;-65
2022/08/31 01:59:06;;;;;;;2.05;1.30;;;25.60;51.10;;;;;;5060323;28;20104;-65
2022/08/31 02:01:34;;;;;;;1.52;1.15;;;25.60;51.10;;;;;;5058983;28;20476;-65
2022/08/31 02:04:01;;;;;;;1.73;1.23;;;25.60;51.10;;;;;;5060796;28;20073;-66
2022/08/31 02:06:27;;;;;;;1.50;1.10;;;25.60;51.10;;;;;;5061651;28;20024;-65
2022/08/31 02:08:53;;;;;;;1.50;1.15;;;25.60;51.10;;;;;;5059143;28;20035;-65
2022/08/31 02:11:18;;;;;;;1.40;1.13;;;25.60;51.20;;;;;;5059931;28;20052;-65
2022/08/31 02:13:44;;;;;;;1.40;1.20;;;25.60;51.70;;;;;;5059897;28;20049;-65
2022/08/31 02:16:10;;;;;;;1.45;1.20;;;25.60;51.10;;;;;;5059493;28;20374;-66
2022/08/31 02:18:36;;;;;;;1.60;1.20;;;25.60;51.20;;;;;;5060779;28;20116;-65
2022/08/31 02:21:02;;;;;;;1.92;1.25;;;25.60;51.20;;;;;;5060841;28;20472;-65
2022/08/31 02:23:28;;;;;;;2.53;1.35;;;25.60;51.20;;;;;;5064443;28;20028;-66
2022/08/31 02:25:54;;;;;;;1.58;1.20;;;25.60;51.20;;;;;;5061788;28;20107;-65
2022/08/31 02:28:21;;;;;;;1.25;1.13;;;25.60;51.20;;;;;;5063340;28;20032;-62
2022/08/31 02:30:47;;;;;;;1.60;1.20;;;25.60;51.20;;;;;;5063922;28;20112;-65
2022/08/31 02:33:13;;;;;;;1.58;1.20;;;25.50;51.10;;;;;;5064404;28;20036;-65
2022/08/31 02:35:40;;;;;;;1.65;1.30;;;25.60;51.20;;;;;;5060296;28;20033;-64
2022/08/31 02:38:07;;;;;;;1.60;1.30;;;25.50;51.10;;;;;;5064308;28;20499;-65
2022/08/31 02:40:37;;;;;;;1.73;1.30;;;25.50;51.10;;;;;;5063313;28;20077;-66
2022/08/31 02:43:07;;;;;;;2.10;1.40;;;25.50;51.10;;;;;;5063415;28;20037;-65
2022/08/31 02:45:33;;;;;;;1.80;1.30;;;25.50;51.10;;;;;;5061961;28;20099;-66
2022/08/31 02:47:58;;;;;;;1.58;1.17;;;25.50;51.20;;;;;;5062433;28;20472;-65
2022/08/31 02:50:24;;;;;;;1.70;1.27;;;25.50;51.10;;;;;;5062287;28;20079;-65
2022/08/31 02:52:52;;;;;;;1.85;1.30;;;25.50;51.10;;;;;;5063463;28;20055;-66
2022/08/31 02:55:18;;;;;;;1.52;1.20;;;25.50;51.20;;;;;;5063852;28;20484;-65
2022/08/31 02:57:43;;;;;;;1.52;1.20;;;25.50;51.20;;;;;;5063089;28;20076;-67
2022/08/31 03:00:10;;;;;;;1.70;1.30;;;25.50;51.20;;;;;;5062739;28;20457;-63
2022/08/31 03:02:35;;;;;;;1.42;1.20;;;25.50;51.20;;;;;;5062419;28;20417;-65
2022/08/31 03:05:06;;;;;;;1.45;1.20;;;25.50;51.20;;;;;;5063138;28;20083;-64
2022/08/31 03:07:36;;;;;;;1.95;1.40;;;25.50;51.20;;;;;;5063946;28;20028;-65
2022/08/31 03:10:04;;;;;;;1.60;1.40;;;25.50;51.20;;;;;;5062447;28;20135;-65
2022/08/31 03:12:29;;;;;;;1.83;1.30;;;25.50;51.20;;;;;;5063299;28;20029;-66
2022/08/31 03:14:55;;;;;;;1.10;1.00;;;25.50;51.20;;;;;;5062335;28;20488;-65
2022/08/31 03:17:21;;;;;;;1.60;1.30;;;25.50;51.20;;;;;;5063152;28;20025;-65
2022/08/31 03:19:46;;;;;;;1.50;1.30;;;25.50;51.20;;;;;;5062039;28;20028;-67
2022/08/31 03:22:13;;;;;;;1.50;1.30;;;25.50;51.20;;;;;;5063437;28;20073;-65
2022/08/31 03:24:39;;;;;;;1.60;1.10;;;25.50;51.20;;;;;;5063186;28;20499;-64
2022/08/31 03:27:05;;;;;;;1.80;1.15;;;25.50;51.20;;;;;;5061812;28;20109;-65
2022/08/31 03:29:32;;;;;;;1.80;1.30;;;25.50;51.20;;;;;;5063556;28;20541;-65
2022/08/31 03:31:57;;;;;;;1.20;1.05;;;25.50;51.20;;;;;;5059986;28;20647;-66
2022/08/31 03:34:23;;;;;;;1.90;1.20;;;25.50;51.30;;;;;;5063331;28;20107;-65
2022/08/31 03:36:48;;;;;;;1.77;1.20;;;25.50;51.20;;;;;;5061319;28;20032;-65
2022/08/31 03:39:14;;;;;;;1.63;1.20;;;25.50;51.20;;;;;;5063325;28;20108;-65
2022/08/31 03:41:40;;;;;;;1.60;1.20;;;25.50;51.30;;;;;;5061337;28;20080;-67
2022/08/31 03:44:05;;;;;;;1.67;1.20;;;25.50;51.30;;;;;;5063242;28;20020;-66
2022/08/31 03:46:32;;;;;;;1.80;1.20;;;25.50;51.30;;;;;;5061171;28;20099;-66
2022/08/31 03:49:00;;;;;;;1.52;1.23;;;25.50;51.30;;;;;;5063158;28;20125;-66
2022/08/31 03:51:26;;;;;;;2.00;1.30;;;25.50;51.30;;;;;;5062986;28;20079;-66
2022/08/31 03:53:52;;;;;;;1.60;1.30;;;25.40;51.30;;;;;;5061658;28;20036;-65
2022/08/31 03:56:18;;;;;;;1.60;1.13;;;25.40;51.30;;;;;;5062172;28;20416;-65
2022/08/31 03:58:44;;;;;;;1.60;1.10;;;25.40;51.30;;;;;;5062121;28;20480;-65
2022/08/31 04:01:13;;;;;;;1.38;1.10;;;25.40;51.30;;;;;;5060799;28;20032;-66
2022/08/31 04:03:39;;;;;;;;;;;25.40;51.20;;;;;;5063182;28;20032;-65
2022/08/31 04:06:10;;;;;;;1.48;1.10;;;25.40;51.20;;;;;;5061402;28;19909;-65
2022/08/31 04:08:36;;;;;;;1.98;1.30;;;25.40;51.80;;;;;;5061147;28;20122;-65
2022/08/31 04:11:08;;;;;;;1.83;1.27;;;25.40;51.30;;;;;;5059351;28;20028;-66
2022/08/31 04:13:34;;;;;;;1.25;1.10;;;25.40;51.30;;;;;;5059570;28;20131;-66
2022/08/31 04:16:00;;;;;;;1.50;1.10;;;25.40;51.30;;;;;;5061032;28;20029;-65
2022/08/31 04:18:26;;;;;;;1.55;1.17;;;25.40;51.30;;;;;;5061642;28;20070;-65
2022/08/31 04:20:51;;;;;;;1.80;1.40;;;25.40;51.30;;;;;;5061701;28;20404;-65
2022/08/31 04:23:17;;;;;;;1.55;1.13;;;25.40;51.30;;;;;;5061685;28;20500;-65
2022/08/31 04:25:42;;;;;;;1.85;1.42;;;25.40;51.30;;;;;;5062495;28;20036;-66
2022/08/31 04:28:09;;;;;;;1.67;1.40;;;25.40;51.30;;;;;;5059644;28;20029;-65
2022/08/31 04:30:42;;;;;;;1.55;1.17;;;25.40;51.30;;;;;;5060192;28;20037;-65
2022/08/31 04:33:08;;;;;;;2.17;1.27;;;25.40;51.30;;;;;;5061133;28;20028;-65
2022/08/31 04:35:34;;;;;;;1.52;1.10;;;25.40;51.30;;;;;;5061143;28;20362;-64
2022/08/31 04:37:59;;;;;;;1.40;1.20;;;25.40;51.90;;;;;;5061237;28;20035;-65
2022/08/31 04:40:25;;;;;;;1.73;1.30;;;25.40;51.60;;;;;;5061427;28;20024;-65
2022/08/31 04:42:51;;;;;;;1.60;1.20;;;25.40;51.40;;;;;;5059959;28;20074;-65
2022/08/31 04:45:16;;;;;;;1.55;1.20;;;25.40;51.40;;;;;;5044304;28;20473;-66
2022/08/31 04:47:42;;;;;;;1.73;1.27;;;25.40;51.30;;;;;;5060447;28;20055;-65
2022/08/31 04:50:09;;;;;;;1.35;1.20;;;25.40;51.40;;;;;;5061989;28;20113;-66
2022/08/31 04:52:35;;;;;;;1.27;1.10;;;25.40;51.40;;;;;;5061336;28;20483;-63
2022/08/31 04:55:02;;;;;;;1.48;1.10;;;25.40;51.40;;;;;;5060273;28;20111;-63
2022/08/31 04:57:27;;;;;;;1.55;1.20;;;25.40;51.40;;;;;;5060827;28;20116;-64
2022/08/31 04:59:53;;;;;;;1.73;1.10;;;25.40;51.40;;;;;;5060016;28;20127;-63
2022/08/31 05:02:19;;;;;;;1.67;1.10;;;25.40;51.40;;;;;;5060635;28;20539;-63
2022/08/31 05:04:44;;;;;;;1.70;1.30;;;25.40;51.40;;;;;;5060453;28;20028;-63
2022/08/31 05:07:10;;;;;;;1.65;1.10;;;25.40;51.40;;;;;;5060713;28;20044;-63
2022/08/31 05:09:35;;;;;;;1.45;1.17;;;25.40;51.40;;;;;;5061093;28;20029;-63
2022/08/31 05:12:01;;;;;;;1.20;1.10;;;25.40;52.00;;;;;;5060308;28;20078;-64
2022/08/31 05:14:27;;;;;;;1.63;1.33;;;25.40;51.40;;;;;;5060342;28;20416;-63
2022/08/31 05:16:52;;;;;;;1.67;1.13;;;25.40;51.40;;;;;;5060022;28;20087;-63
2022/08/31 05:19:19;;;;;;;1.20;1.05;;;25.40;51.40;;;;;;5061296;28;20468;-63
2022/08/31 05:21:45;;;;;;;1.80;1.25;;;25.40;52.00;;;;;;5060853;28;20025;-62
2022/08/31 05:24:17;;;;;;;1.70;1.20;;;25.40;51.40;;;;;;5060078;28;20053;-63
2022/08/31 05:26:49;;;;;;;1.77;1.20;;;25.30;51.40;;;;;;5060059;28;20485;-62
2022/08/31 05:29:18;;;;;;;2.03;1.40;;;25.40;51.50;;;;;;5059390;28;20033;-63
2022/08/31 05:31:44;;;;;;;1.52;1.30;;;25.30;51.40;;;;;;5057880;28;20068;-64
2022/08/31 05:34:11;;;;;;;1.27;1.17;;;25.30;51.40;;;;;;5059962;28;20029;-63
2022/08/31 05:36:38;;;;;;;1.60;1.20;;;25.30;51.50;;;;;;5061150;28;20373;-64
2022/08/31 05:39:08;;;;;;;1.40;1.17;;;25.40;51.50;;;;;;5060262;28;20036;-64
2022/08/31 05:41:34;;;;;;;1.52;1.15;;;25.30;51.40;;;;;;5060935;28;20033;-63
2022/08/31 05:44:02;;;;;;;1.70;1.30;;;25.30;51.50;;;;;;5060004;28;20492;-64
2022/08/31 05:46:28;;;;;;;1.25;1.15;;;25.30;51.50;;;;;;5060210;28;20025;-63
2022/08/31 05:48:54;;;;;;;1.77;1.17;;;25.30;51.50;;;;;;5061690;28;20400;-63
2022/08/31 05:51:20;;;;;;;1.73;1.30;;;25.30;51.50;;;;;;5060772;28;20024;-63
2022/08/31 05:53:46;;;;;;;1.20;1.10;;;25.40;51.50;;;;;;5060414;28;20155;-64
2022/08/31 05:56:18;;;;;;;1.42;1.10;;;25.30;51.50;;;;;;5062385;28;20111;-64
2022/08/31 05:58:45;;;;;;;1.95;1.30;;;25.30;51.50;;;;;;5063451;28;20059;-64
2022/08/31 06:01:18;;;;;;;2.40;1.60;;;25.30;51.50;;;;;;5062942;28;20048;-64
2022/08/31 06:03:44;;;;;;;4.30;2.50;;;25.30;51.20;;;;;;5063951;28;20100;-64
2022/08/31 06:06:10;;;;;;;3.60;2.30;;;25.30;50.50;;;;;;5062844;28;20544;-64
2022/08/31 06:08:37;;;;;;;3.78;2.55;;;25.20;50.00;;;;;;5065020;28;20456;-64
2022/08/31 06:11:04;;;;;;;4.18;2.88;;;25.20;49.50;;;;;;5063257;28;20036;-64
2022/08/31 06:13:30;;;;;;;3.75;2.90;;;25.10;49.60;;;;;;5063174;28;20448;-65
2022/08/31 06:15:56;;;;;;;3.92;3.13;;;25.00;49.40;;;;;;5063898;28;20086;-65
2022/08/31 06:18:22;;;;;;;4.45;3.28;;;25.00;49.00;;;;;;5063846;28;20039;-64
2022/08/31 06:20:48;;;;;;;3.88;2.92;;;24.90;49.30;;;;;;5064160;28;20024;-64
2022/08/31 06:23:14;;;;;;;3.88;2.97;;;24.80;49.20;;;;;;5062466;28;20053;-64
2022/08/31 06:25:40;;;;;;;3.83;3.00;;;24.80;49.40;;;;;;5062768;28;20392;-64
2022/08/31 06:28:13;;;;;;;4.30;3.25;;;24.70;49.30;;;;;;5062733;28;20032;-64
2022/08/31 06:30:38;;;;;;;5.10;3.10;;;24.70;49.30;;;;;;5062864;28;20078;-64
2022/08/31 06:33:07;;;;;;;4.07;3.30;;;24.60;49.40;;;;;;5064006;28;20444;-63
2022/08/31 06:35:38;;;;;;;5.88;3.80;;;24.60;49.50;;;;;;5063836;28;20039;-64
2022/08/31 06:38:04;;;;;;;5.07;3.42;;;24.50;49.40;;;;;;5062710;28;20087;-63
2022/08/31 06:40:30;;;;;;;4.18;3.20;;;24.50;49.60;;;;;;5062064;28;20056;-64
2022/08/31 06:42:55;;;;;;;5.03;3.20;;;24.40;50.30;;;;;;5064078;28;20412;-67
2022/08/31 06:45:21;;;;;;;4.38;3.00;;;24.30;49.90;;;;;;5062584;28;20017;-65
2022/08/31 06:47:46;;;;;;;3.85;2.88;;;24.30;50.00;;;;;;5063784;28;20488;-64
2022/08/31 06:50:12;;;;;;;4.45;2.85;;;24.30;50.00;;;;;;5061472;28;20414;-65
2022/08/31 06:52:38;;;;;;;4.03;2.90;;;24.30;50.10;;;;;;5063237;28;20148;-65
2022/08/31 06:55:04;;;;;;;4.32;2.67;;;24.30;50.30;;;;;;5063323;28;20032;-63
2022/08/31 06:57:29;;;;;;;3.30;2.55;;;24.30;50.40;;;;;;5062456;28;20435;-63
2022/08/31 06:59:55;;;;;;;4.35;3.50;;;24.20;50.40;;;;;;5063285;28;20383;-63
2022/08/31 07:02:21;;;;;;;4.40;2.97;;;24.20;50.40;;;;;;5061591;28;20067;-64
2022/08/31 07:04:47;;;;;;;4.18;2.78;;;24.20;50.30;;;;;;5063748;28;20037;-64
2022/08/31 07:07:12;;;;;;;4.80;3.20;;;24.20;50.50;;;;;;5061052;28;20029;-64
2022/08/31 07:09:39;;;;;;;4.30;3.45;;;24.10;50.60;;;;;;5063691;28;20086;-64
2022/08/31 07:12:06;;;;;;;4.75;3.22;;;24.10;50.60;;;;;;5061317;28;20025;-64
2022/08/31 07:14:32;;;;;;;4.32;3.20;;;24.10;50.70;;;;;;5059833;28;20060;-64
2022/08/31 07:16:58;;;;;;;4.50;3.40;;;24.00;50.80;;;;;;5060865;28;20047;-64
2022/08/31 07:19:25;;;;;;;4.40;3.15;;;23.90;51.00;;;;;;5063594;28;20032;-64
2022/08/31 07:21:54;;;;;;;3.80;2.92;;;23.90;51.00;;;;;;5061958;28;20480;-64
2022/08/31 07:24:23;;;;;;;4.82;3.65;;;23.90;51.00;;;;;;5062175;28;20025;-62
2022/08/31 07:26:56;;;;;;;3.58;2.58;;;23.90;51.00;;;;;;5062444;28;20472;-64
2022/08/31 07:29:23;;;;;;;4.07;2.72;;;23.80;51.00;;;;;;5062125;28;20033;-63
2022/08/31 07:31:49;;;;;;;4.00;2.65;;;23.80;51.20;;;;;;5060364;28;20507;-63
2022/08/31 07:34:24;;;;;;;3.25;2.50;;;23.70;51.20;;;;;;5063023;28;20033;-63
2022/08/31 07:42:23;;;;;;;2.85;2.20;;;23.80;51.40;;;;;;5061577;28;20032;-63
2022/08/31 07:44:50;;;;;;;3.65;2.60;;;23.70;51.40;;;;;;5061366;28;20419;-64
2022/08/31 07:47:19;;;;;;;3.50;2.67;;;23.80;51.40;;;;;;5061147;28;20539;-63
2022/08/31 07:49:49;;;;;;;2.63;2.03;;;23.80;51.40;;;;;;5061587;28;20491;-64
2022/08/31 07:52:27;;;;;;;2.92;2.10;;;23.80;51.40;;;;;;5061798;28;20470;-63
2022/08/31 07:54:55;;;;;;;2.92;2.20;;;23.80;51.40;;;;;;5061174;28;20021;-63
2022/08/31 07:57:24;;;;;;;3.70;2.53;;;23.80;51.40;;;;;;5060764;28;20452;-63
2022/08/31 08:00:03;;;;;;;3.45;2.40;;;23.80;51.40;;;;;;5061281;28;20531;-63
2022/08/31 08:02:29;;;;;;;3.27;2.30;;;23.80;51.40;;;;;;5060726;28;20102;-63
2022/08/31 08:04:55;;;;;;;3.00;2.30;;;23.80;51.40;;;;;;5062183;28;20078;-64
2022/08/31 08:07:20;;;;;;;3.20;2.22;;;23.90;51.50;;;;;;5060695;28;20601;-63
2022/08/31 08:09:46;;;;;;;2.92;2.10;;;23.80;51.40;;;;;;5061003;28;20029;-62
2022/08/31 08:12:12;;;;;;;3.17;2.38;;;23.80;51.40;;;;;;5061403;28;20060;-63
2022/08/31 08:14:39;;;;;;;2.75;2.08;;;23.90;51.50;;;;;;5061719;28;20496;-63
2022/08/31 08:17:06;;;;;;;2.90;2.30;;;23.90;51.50;;;;;;5060755;28;20033;-64
2022/08/31 08:19:33;;;;;;;3.60;2.63;;;23.90;51.50;;;;;;5060315;28;20112;-64
2022/08/31 08:22:01;;;;;;;2.90;2.03;;;23.90;51.50;;;;;;5062355;28;20024;-64
2022/08/31 08:24:28;;;;;;;5.07;2.60;;;23.90;51.50;;;;;;5060556;28;20486;-63
2022/08/31 08:26:54;;;;;;;3.53;2.67;;;23.90;51.50;;;;;;5061987;28;20029;-63
2022/08/31 08:29:19;;;;;;;2.83;2.10;;;23.90;51.50;;;;;;5060494;28;20134;-64
2022/08/31 08:31:50;;;;;;;2.58;1.95;;;23.90;51.50;;;;;;5061227;28;20539;-64
2022/08/31 08:34:18;;;;;;;2.83;2.15;;;23.90;51.50;;;;;;5061401;28;20392;-64
2022/08/31 08:36:45;;;;;;;3.17;2.08;;;23.90;51.50;;;;;;5060602;28;20025;-63
2022/08/31 08:39:11;;;;;;;2.70;1.98;;;23.90;51.50;;;;;;5060812;28;20037;-64
2022/08/31 08:41:39;;;;;;;3.65;2.08;;;23.90;51.50;;;;;;5061330;28;20506;-64
2022/08/31 08:44:08;;;;;;;3.20;2.20;;;23.90;51.50;;;;;;5060547;28;20025;-64
2022/08/31 08:46:48;;;;;;;3.10;2.20;;;23.90;51.50;;;;;;5061550;28;20040;-64
2022/08/31 08:49:23;;;;;;;2.90;2.17;;;23.90;51.50;;;;;;5061615;28;20032;-64
2022/08/31 08:51:52;;;;;;;2.58;1.98;;;23.90;51.50;;;;;;5059766;28;20053;-63
2022/08/31 08:54:29;;;;;;;2.85;2.00;;;23.90;51.50;;;;;;5061491;28;20040;-64
2022/08/31 08:56:55;;;;;;;2.92;2.00;;;24.00;51.60;;;;;;5061037;28;20028;-63
2022/08/31 08:59:21;;;;;;;2.58;1.85;;;24.00;51.50;;;;;;5059585;28;20043;-64
2022/08/31 09:01:50;;;;;;;3.30;2.08;;;24.00;51.50;;;;;;5059625;28;20502;-63
2022/08/31 09:04:29;;;;;;;3.37;2.17;;;24.00;51.50;;;;;;5060613;28;20486;-64
2022/08/31 09:07:21;;;;;;;2.35;1.80;;;24.00;51.60;;;;;;5060464;28;20256;-64
2022/08/31 09:09:59;;;;;;;2.30;1.80;;;24.00;51.50;;;;;;5060490;28;20032;-63
2022/08/31 09:12:41;;;;;;;2.75;2.00;;;24.00;51.50;;;;;;5060253;28;20025;-64
2022/08/31 09:15:45;;;;;;;2.67;1.90;;;24.00;51.60;;;;;;5060773;28;20083;-64
2022/08/31 09:18:38;;;;;;;2.33;1.90;;;24.00;51.50;;;;;;5060081;28;20103;-64
2022/08/31 09:21:24;;;;;;;2.75;2.10;;;24.00;51.50;;;;;;5060457;28;20028;-64
2022/08/31 09:24:10;;;;;;;2.58;2.10;;;24.00;51.50;;;;;;5060115;28;20021;-63
2022/08/31 09:27:19;;;;;;;3.00;2.00;;;24.00;51.50;;;;;;5060035;28;20354;-63
2022/08/31 09:29:53;;;;;;;;;;;24.00;51.50;;;;;;5062176;28;20021;-64
2022/08/31 09:32:23;;;;;;;2.67;2.00;;;24.10;51.50;;;;;;5062389;28;19998;-63
2022/08/31 09:35:20;;;;;;;2.47;1.85;;;24.10;51.40;;;;;;5064574;28;20610;-64
2022/08/31 09:38:00;;;;;;;2.50;1.80;;;24.10;51.40;;;;;;5065677;28;20040;-64
2022/08/31 09:40:51;;;;;;;2.90;2.03;;;24.10;51.40;;;;;;5063493;28;20028;-64
2022/08/31 09:43:24;;;;;;;2.97;1.83;;;24.10;51.40;;;;;;5063706;28;20055;-64
2022/08/31 09:46:01;;;;;;;2.53;2.00;;;24.10;51.40;;;;;;5064816;28;20380;-64
2022/08/31 09:48:45;;;;;;;2.28;1.80;;;24.10;51.40;;;;;;5064400;28;20029;-64
2022/08/31 09:51:33;;;;;;;2.85;1.70;;;24.10;51.40;;;;;;5064597;28;20029;-64
2022/08/31 09:56:57;;;;;;;2.53;1.90;;;24.10;51.50;;;;;;5063542;28;20100;-63
2022/08/31 09:59:38;;;;;;;2.38;1.77;;;24.10;51.50;;;;;;5060639;28;20043;-63
2022/08/31 10:02:27;;;;;;;2.97;2.08;;;24.10;51.50;;;;;;5062346;28;20041;-64
2022/08/31 10:05:24;;;;;;;2.40;1.77;;;24.10;51.60;;;;;;5064617;28;20033;-64
2022/08/31 10:08:03;;;;;;;2.75;1.98;;;24.20;51.70;;;;;;5062803;28;20405;-63
2022/08/31 10:10:32;;;;;;;2.63;1.75;;;24.10;51.60;;;;;;5062371;28;20040;-64
2022/08/31 10:12:59;;;;;;;1.80;1.50;;;24.20;51.70;;;;;;5060306;28;20052;-63
2022/08/31 10:15:31;;;;;;;2.35;1.80;;;24.10;51.60;;;;;;5063832;28;20036;-63
2022/08/31 10:18:02;;;;;;;2.50;1.70;;;24.10;51.60;;;;;;5065225;28;20039;-63
2022/08/31 10:20:38;;;;;;;2.72;1.90;;;24.20;51.70;;;;;;5063026;28;20025;-64
2022/08/31 10:23:17;;;;;;;3.33;2.00;;;24.20;51.70;;;;;;5063851;28;20491;-64
2022/08/31 10:25:51;;;;;;;2.40;2.00;;;24.20;51.70;;;;;;5061942;28;20073;-63
2022/08/31 10:28:36;;;;;;;2.25;1.70;;;24.20;51.70;;;;;;5062252;28;20072;-64
2022/08/31 10:31:12;;;;;;;2.83;2.00;;;24.20;51.70;;;;;;5061960;28;20103;-64
2022/08/31 10:36:36;;;;;;;3.17;1.92;;;24.20;51.80;;;;;;5064318;28;20071;-63
2022/08/31 10:39:11;;;;;;;2.20;1.58;;;24.20;51.80;;;;;;5063521;28;20040;-64
2022/08/31 10:41:41;;;;;;;2.50;1.98;;;24.20;51.80;;;;;;5061191;28;20052;-63
2022/08/31 10:44:35;;;;;;;2.70;1.80;;;24.20;51.90;;;;;;5063866;28;20768;-64
2022/08/31 10:47:04;;;;;;;2.80;1.80;;;24.20;51.90;;;;;;5062394;28;20051;-64
2022/08/31 10:49:34;;;;;;;2.53;1.60;;;24.30;52.00;;;;;;5063512;28;20033;-64
2022/08/31 10:52:09;;;;;;;2.33;1.80;;;24.30;52.00;;;;;;5062881;28;20035;-63
2022/08/31 10:54:39;;;;;;;2.45;1.83;;;24.20;52.00;;;;;;5062574;28;20068;-64
2022/08/31 10:57:19;;;;;;;2.63;1.75;;;24.30;52.00;;;;;;5063165;28;20154;-64
2022/08/31 11:00:40;;;;;;;3.20;1.70;;;24.30;52.00;;;;;;5062160;28;20067;-63
2022/08/31 11:03:12;;;;;;;2.63;1.92;;;24.30;52.00;;;;;;5045988;28;20545;-64
2022/08/31 11:06:00;;;;;;;2.70;1.80;;;24.30;52.00;;;;;;5062347;28;20487;-64
2022/08/31 11:08:26;;;;;;;2.78;1.88;;;24.30;52.10;;;;;;5053532;28;20041;-64
2022/08/31 11:10:56;;;;;;;3.15;1.95;;;24.30;52.00;;;;;;5060219;28;20028;-64
2022/08/31 11:13:40;;;;;;;2.70;1.83;;;24.30;52.00;;;;;;5061587;28;20048;-64
2022/08/31 11:16:27;;;;;;;3.45;2.20;;;24.30;52.00;;;;;;5062718;28;20024;-65
2022/08/31 11:19:12;;;;;;;2.53;1.88;;;24.30;52.00;;;;;;5062484;28;20499;-65
2022/08/31 11:22:01;;;;;;;2.30;1.70;;;24.30;52.00;;;;;;5062569;28;20048;-65
2022/08/31 11:24:39;;;;;;;2.03;1.52;;;24.30;52.00;;;;;;5062721;28;20025;-66
2022/08/31 11:27:10;;;;;;;2.30;1.70;;;24.30;52.00;;;;;;5060872;28;20104;-64
2022/08/31 11:30:23;;;;;;;2.40;1.80;;;24.30;52.00;;;;;;5061773;28;20032;-65
2022/08/31 11:32:53;;;;;;;2.50;1.70;;;24.30;52.00;;;;;;5062513;28;20444;-65
2022/08/31 11:36:20;;;;;;;2.25;1.70;;;24.40;52.00;;;;;;5062973;28;20080;-64
2022/08/31 11:38:51;;;;;;;2.40;1.70;;;24.30;52.00;;;;;;5058531;28;20036;-66
2022/08/31 11:41:38;;;;;;;2.42;1.67;;;24.30;52.10;;;;;;5061998;28;20025;-66
2022/08/31 11:44:07;;;;;;;2.40;1.63;;;24.30;52.20;;;;;;5062479;28;20033;-66
2022/08/31 11:46:33;;;;;;;2.20;1.48;;;24.40;52.30;;;;;;5061546;28;20028;-65
2022/08/31 11:48:59;;;;;;;2.60;1.75;;;24.30;52.30;;;;;;5061146;28;20029;-65
2022/08/31 11:51:45;;;;;;;2.25;1.58;;;24.40;52.40;;;;;;5060326;28;20029;-66
2022/08/31 11:54:37;;;;;;;2.28;1.55;;;24.40;52.40;;;;;;5060627;28;20124;-63
2022/08/31 11:57:05;;;;;;;2.40;1.80;;;24.40;52.30;;;;;;5061694;28;20064;-65
2022/08/31 11:59:34;;;;;;;2.00;1.60;;;24.40;52.30;;;;;;5062576;28;20033;-65
2022/08/31 12:02:19;;;;;;;2.35;1.70;;;24.40;52.30;;;;;;5060745;28;20032;-65
2022/08/31 12:04:46;;;;;;;2.55;1.67;;;24.40;52.40;;;;;;5061022;28;20506;-64
2022/08/31 12:07:40;;;;;;;2.35;1.65;;;24.40;52.80;;;;;;5060367;28;20017;-65
2022/08/31 12:10:15;;;;;;;2.00;1.50;;;24.40;52.30;;;;;;5059543;28;20032;-65
2022/08/31 12:12:55;;;;;;;2.00;1.40;;;24.40;52.30;;;;;;5058872;28;20021;-65
2022/08/31 12:15:41;;;;;;;2.28;1.50;;;24.40;52.20;;;;;;5099328;27;20501;-64
2022/08/31 12:18:44;;;;;;;2.08;1.40;;;24.40;52.20;;;;;;5078902;28;20117;-64
2022/08/31 12:24:23;;;;;;;2.35;1.58;;;24.40;52.20;;;;;;5093627;28;20065;-63
2022/08/31 12:27:16;;;;;;;2.17;1.50;;;24.40;52.10;;;;;;5098334;28;20050;-65
2022/08/31 12:29:42;;;;;;;2.22;1.63;;;24.40;52.20;;;;;;5097637;28;20462;-63
2022/08/31 12:32:11;;;;;;;1.88;1.42;;;24.40;52.10;;;;;;5057700;28;20034;-64
2022/08/31 12:35:13;;;;;;;2.42;1.52;;;24.40;52.10;;;;;;5037410;28;20040;-65
2022/08/31 12:37:39;;;;;;;1.58;1.30;;;24.40;52.10;;;;;;5029564;28;20041;-65
2022/08/31 12:40:23;;;;;;;2.22;1.58;;;24.40;52.10;;;;;;5037055;28;20033;-65
2022/08/31 12:42:57;;;;;;;3.70;1.80;;;24.40;52.10;;;;;;5036812;28;20028;-65
2022/08/31 12:46:01;;;;;;;2.10;1.50;;;24.40;52.10;;;;;;5052352;28;20117;-65
2022/08/31 12:48:48;;;;;;;2.58;1.70;;;24.40;52.10;;;;;;5033100;28;20037;-66
2022/08/31 12:51:34;;;;;;;2.15;1.50;;;24.40;52.10;;;;;;5037497;28;20030;-65
2022/08/31 12:54:11;;;;;;;2.17;1.52;;;24.40;52.10;;;;;;5036860;28;20034;-66
2022/08/31 12:56:42;;;;;;;1.80;1.40;;;24.40;52.00;;;;;;5036468;28;20064;-65
2022/08/31 12:59:27;;;;;;;2.15;1.63;;;24.50;52.10;;;;;;5051653;28;20053;-65
2022/08/31 13:01:53;;;;;;;2.33;1.60;;;24.50;52.00;;;;;;5036523;28;20040;-65
2022/08/31 13:04:21;;;;;;;2.33;1.60;;;24.50;52.00;;;;;;5035464;28;20432;-65
2022/08/31 13:06:47;;;;;;;2.17;1.70;;;24.50;52.50;;;;;;5050454;28;20030;-65
2022/08/31 13:09:29;;;;;;;2.03;1.50;;;24.50;52.50;;;;;;5037317;28;20512;-65
2022/08/31 13:11:57;;;;;;;2.30;1.60;;;24.50;52.00;;;;;;5037749;28;20032;-65
2022/08/31 13:14:41;;;;;;;2.28;1.80;;;24.50;52.00;;;;;;5033764;28;20042;-65
2022/08/31 13:17:16;;;;;;;1.80;1.40;;;24.50;52.00;;;;;;5036361;28;20044;-65
2022/08/31 13:19:54;;;;;;;2.05;1.60;;;24.50;52.00;;;;;;5050770;28;20021;-66
2022/08/31 13:22:54;;;;;;;2.30;1.70;;;24.50;52.00;;;;;;5038228;28;20029;-66
2022/08/31 13:25:34;;;;;;;2.22;1.60;;;24.50;51.90;;;;;;5030947;28;20034;-66
2022/08/31 13:28:03;;;;;;;2.28;1.60;;;24.50;51.90;;;;;;5021777;28;20036;-66